sensor_id;sensor_type;location;lat;lon;timestamp;P1;durP1;ratioP1;P2;durP2;ratioP2
4873;SDS011;2451;49.970;9.068;2023-03-14T00:02:25;1.98;;;0.90;;
4873;SDS011;2451;49.970;9.068;2023-03-14T00:04:53;2.00;;;1.00;;
4873;SDS011;2451;49.970;9.068;2023-03-14T00:07:20;1.40;;;0.88;;
4873;SDS011;2451;49.970;9.068;2023-03-14T00:09:46;1.55;;;0.95;;
4873;SDS011;2451;49.970;9.068;2023-03-14T00:12:12;1.83;;;1.00;;
4873;SDS011;2451;49.970;9.068;2023-03-14T00:14:39;1.95;;;0.93;;
4873;SDS011;2451;49.970;9.068;2023-03-14T00:17:07;2.22;;;1.00;;
4873;SDS011;2451;49.970;9.068;2023-03-14T00:19:33;2.38;;;1.08;;
4873;SDS011;2451;49.970;9.068;2023-03-14T00:21:58;2.08;;;1.00;;
4873;SDS011;2451;49.970;9.068;2023-03-14T00:24:24;2.38;;;0.95;;
4873;SDS011;2451;49.970;9.068;2023-03-14T00:26:49;4.38;;;1.10;;
4873;SDS011;2451;49.970;9.068;2023-03-14T00:29:15;3.60;;;1.13;;
4873;SDS011;2451;49.970;9.068;2023-03-14T00:31:40;3.47;;;1.50;;
4873;SDS011;2451;49.970;9.068;2023-03-14T00:34:06;3.05;;;1.10;;
4873;SDS011;2451;49.970;9.068;2023-03-14T00:36:31;2.67;;;1.10;;
4873;SDS011;2451;49.970;9.068;2023-03-14T00:38:57;6.22;;;1.17;;
4873;SDS011;2451;49.970;9.068;2023-03-14T00:41:23;4.50;;;1.50;;
4873;SDS011;2451;49.970;9.068;2023-03-14T00:43:49;2.83;;;1.10;;
4873;SDS011;2451;49.970;9.068;2023-03-14T00:46:15;3.60;;;1.40;;
4873;SDS011;2451;49.970;9.068;2023-03-14T00:48:41;3.00;;;1.30;;
4873;SDS011;2451;49.970;9.068;2023-03-14T00:51:07;7.05;;;1.60;;
4873;SDS011;2451;49.970;9.068;2023-03-14T00:53:37;2.85;;;1.35;;
4873;SDS011;2451;49.970;9.068;2023-03-14T00:56:04;6.22;;;1.30;;
4873;SDS011;2451;49.970;9.068;2023-03-14T00:58:32;4.30;;;1.30;;
4873;SDS011;2451;49.970;9.068;2023-03-14T01:00:57;6.43;;;1.30;;
4873;SDS011;2451;49.970;9.068;2023-03-14T01:03:23;3.15;;;1.10;;
4873;SDS011;2451;49.970;9.068;2023-03-14T01:05:49;2.28;;;1.25;;
4873;SDS011;2451;49.970;9.068;2023-03-14T01:08:15;3.88;;;1.35;;
4873;SDS011;2451;49.970;9.068;2023-03-14T01:10:41;2.65;;;1.42;;
4873;SDS011;2451;49.970;9.068;2023-03-14T01:13:07;3.47;;;1.17;;
4873;SDS011;2451;49.970;9.068;2023-03-14T01:15:34;5.65;;;1.83;;
4873;SDS011;2451;49.970;9.068;2023-03-14T01:18:00;3.60;;;1.20;;
4873;SDS011;2451;49.970;9.068;2023-03-14T01:20:25;4.45;;;1.40;;
4873;SDS011;2451;49.970;9.068;2023-03-14T01:22:51;4.07;;;1.15;;
4873;SDS011;2451;49.970;9.068;2023-03-14T01:25:17;3.85;;;1.35;;
4873;SDS011;2451;49.970;9.068;2023-03-14T01:27:43;5.13;;;1.60;;
4873;SDS011;2451;49.970;9.068;2023-03-14T01:30:10;5.28;;;1.27;;
4873;SDS011;2451;49.970;9.068;2023-03-14T01:32:36;4.43;;;1.33;;
4873;SDS011;2451;49.970;9.068;2023-03-14T01:35:02;3.20;;;1.40;;
4873;SDS011;2451;49.970;9.068;2023-03-14T01:37:28;5.28;;;1.50;;
4873;SDS011;2451;49.970;9.068;2023-03-14T01:39:53;4.03;;;1.42;;
4873;SDS011;2451;49.970;9.068;2023-03-14T01:42:19;5.22;;;1.40;;
4873;SDS011;2451;49.970;9.068;2023-03-14T01:47:20;2.40;;;1.17;;
4873;SDS011;2451;49.970;9.068;2023-03-14T01:49:48;3.33;;;1.27;;
4873;SDS011;2451;49.970;9.068;2023-03-14T01:52:33;4.05;;;1.40;;
4873;SDS011;2451;49.970;9.068;2023-03-14T01:55:07;5.88;;;1.33;;
4873;SDS011;2451;49.970;9.068;2023-03-14T01:57:38;3.72;;;1.15;;
4873;SDS011;2451;49.970;9.068;2023-03-14T02:02:36;5.43;;;1.40;;
4873;SDS011;2451;49.970;9.068;2023-03-14T02:05:04;5.55;;;1.50;;
4873;SDS011;2451;49.970;9.068;2023-03-14T02:07:35;2.35;;;1.10;;
4873;SDS011;2451;49.970;9.068;2023-03-14T02:10:09;5.80;;;1.40;;
4873;SDS011;2451;49.970;9.068;2023-03-14T02:12:35;4.40;;;1.40;;
4873;SDS011;2451;49.970;9.068;2023-03-14T02:15:01;4.30;;;1.40;;
4873;SDS011;2451;49.970;9.068;2023-03-14T02:17:27;3.00;;;1.02;;
4873;SDS011;2451;49.970;9.068;2023-03-14T02:19:57;6.25;;;1.48;;
4873;SDS011;2451;49.970;9.068;2023-03-14T02:22:31;2.92;;;1.45;;
4873;SDS011;2451;49.970;9.068;2023-03-14T02:27:31;3.80;;;1.30;;
4873;SDS011;2451;49.970;9.068;2023-03-14T02:30:02;3.05;;;1.13;;
4873;SDS011;2451;49.970;9.068;2023-03-14T02:32:34;4.72;;;1.33;;
4873;SDS011;2451;49.970;9.068;2023-03-14T02:35:09;5.88;;;1.30;;
4873;SDS011;2451;49.970;9.068;2023-03-14T02:37:59;3.50;;;1.20;;
4873;SDS011;2451;49.970;9.068;2023-03-14T02:40:31;5.55;;;1.35;;
4873;SDS011;2451;49.970;9.068;2023-03-14T02:42:57;2.42;;;1.10;;
4873;SDS011;2451;49.970;9.068;2023-03-14T02:47:52;3.30;;;1.33;;
4873;SDS011;2451;49.970;9.068;2023-03-14T02:50:26;5.05;;;1.30;;
4873;SDS011;2451;49.970;9.068;2023-03-14T02:52:55;3.80;;;1.25;;
4873;SDS011;2451;49.970;9.068;2023-03-14T02:55:21;3.72;;;1.45;;
4873;SDS011;2451;49.970;9.068;2023-03-14T02:57:47;3.90;;;1.33;;
4873;SDS011;2451;49.970;9.068;2023-03-14T03:00:13;8.23;;;1.33;;
4873;SDS011;2451;49.970;9.068;2023-03-14T03:02:39;5.40;;;1.70;;
4873;SDS011;2451;49.970;9.068;2023-03-14T03:05:05;5.38;;;1.13;;
4873;SDS011;2451;49.970;9.068;2023-03-14T03:07:31;4.10;;;1.38;;
4873;SDS011;2451;49.970;9.068;2023-03-14T03:09:56;3.95;;;1.45;;
4873;SDS011;2451;49.970;9.068;2023-03-14T03:12:22;3.83;;;1.35;;
4873;SDS011;2451;49.970;9.068;2023-03-14T03:14:47;3.65;;;1.25;;
4873;SDS011;2451;49.970;9.068;2023-03-14T03:17:13;3.85;;;1.33;;
4873;SDS011;2451;49.970;9.068;2023-03-14T03:19:39;2.72;;;1.08;;
4873;SDS011;2451;49.970;9.068;2023-03-14T03:22:04;5.63;;;1.40;;
4873;SDS011;2451;49.970;9.068;2023-03-14T03:24:30;5.53;;;1.73;;
4873;SDS011;2451;49.970;9.068;2023-03-14T03:26:55;2.50;;;1.10;;
4873;SDS011;2451;49.970;9.068;2023-03-14T03:29:20;4.22;;;1.48;;
4873;SDS011;2451;49.970;9.068;2023-03-14T03:31:46;3.00;;;1.17;;
4873;SDS011;2451;49.970;9.068;2023-03-14T03:34:12;3.75;;;1.20;;
4873;SDS011;2451;49.970;9.068;2023-03-14T03:36:38;2.50;;;1.20;;
4873;SDS011;2451;49.970;9.068;2023-03-14T03:39:04;3.25;;;1.05;;
4873;SDS011;2451;49.970;9.068;2023-03-14T03:41:30;2.55;;;1.15;;
4873;SDS011;2451;49.970;9.068;2023-03-14T03:43:56;4.40;;;1.20;;
4873;SDS011;2451;49.970;9.068;2023-03-14T03:46:22;3.60;;;1.13;;
4873;SDS011;2451;49.970;9.068;2023-03-14T03:48:47;5.30;;;1.10;;
4873;SDS011;2451;49.970;9.068;2023-03-14T03:51:14;5.47;;;1.25;;
4873;SDS011;2451;49.970;9.068;2023-03-14T03:53:41;3.15;;;1.10;;
4873;SDS011;2451;49.970;9.068;2023-03-14T03:56:07;4.25;;;1.15;;
4873;SDS011;2451;49.970;9.068;2023-03-14T03:58:33;4.78;;;1.17;;
4873;SDS011;2451;49.970;9.068;2023-03-14T04:00:59;4.57;;;1.25;;
4873;SDS011;2451;49.970;9.068;2023-03-14T04:03:25;3.60;;;1.30;;
4873;SDS011;2451;49.970;9.068;2023-03-14T04:06:04;5.55;;;1.20;;
4873;SDS011;2451;49.970;9.068;2023-03-14T04:08:31;5.65;;;1.27;;
4873;SDS011;2451;49.970;9.068;2023-03-14T04:10:57;4.07;;;1.20;;
4873;SDS011;2451;49.970;9.068;2023-03-14T04:13:24;3.60;;;1.05;;
4873;SDS011;2451;49.970;9.068;2023-03-14T04:15:50;4.95;;;1.25;;
4873;SDS011;2451;49.970;9.068;2023-03-14T04:18:16;4.13;;;1.40;;
4873;SDS011;2451;49.970;9.068;2023-03-14T04:20:41;4.30;;;1.30;;
4873;SDS011;2451;49.970;9.068;2023-03-14T04:23:07;2.90;;;1.35;;
4873;SDS011;2451;49.970;9.068;2023-03-14T04:25:32;4.82;;;1.00;;
4873;SDS011;2451;49.970;9.068;2023-03-14T04:27:58;3.90;;;1.20;;
4873;SDS011;2451;49.970;9.068;2023-03-14T04:30:23;8.68;;;1.40;;
4873;SDS011;2451;49.970;9.068;2023-03-14T04:32:49;3.08;;;1.10;;
4873;SDS011;2451;49.970;9.068;2023-03-14T04:35:15;5.75;;;1.42;;
4873;SDS011;2451;49.970;9.068;2023-03-14T04:37:40;4.60;;;1.35;;
4873;SDS011;2451;49.970;9.068;2023-03-14T04:40:08;4.22;;;1.30;;
4873;SDS011;2451;49.970;9.068;2023-03-14T04:42:34;5.35;;;1.45;;
4873;SDS011;2451;49.970;9.068;2023-03-14T04:45:00;5.32;;;1.33;;
4873;SDS011;2451;49.970;9.068;2023-03-14T04:47:26;5.00;;;1.23;;
4873;SDS011;2451;49.970;9.068;2023-03-14T04:49:52;4.38;;;1.50;;
4873;SDS011;2451;49.970;9.068;2023-03-14T04:52:17;8.77;;;1.45;;
4873;SDS011;2451;49.970;9.068;2023-03-14T04:54:43;3.97;;;1.10;;
4873;SDS011;2451;49.970;9.068;2023-03-14T04:57:08;4.45;;;1.48;;
4873;SDS011;2451;49.970;9.068;2023-03-14T04:59:34;3.25;;;1.20;;
4873;SDS011;2451;49.970;9.068;2023-03-14T05:01:59;3.15;;;1.30;;
4873;SDS011;2451;49.970;9.068;2023-03-14T05:04:25;2.88;;;1.40;;
4873;SDS011;2451;49.970;9.068;2023-03-14T05:06:51;3.53;;;1.33;;
4873;SDS011;2451;49.970;9.068;2023-03-14T05:09:16;4.95;;;1.52;;
4873;SDS011;2451;49.970;9.068;2023-03-14T05:11:42;4.65;;;1.70;;
4873;SDS011;2451;49.970;9.068;2023-03-14T05:14:08;4.65;;;1.50;;
4873;SDS011;2451;49.970;9.068;2023-03-14T05:16:33;5.43;;;1.60;;
4873;SDS011;2451;49.970;9.068;2023-03-14T05:18:59;7.68;;;2.30;;
4873;SDS011;2451;49.970;9.068;2023-03-14T05:21:26;5.45;;;1.33;;
4873;SDS011;2451;49.970;9.068;2023-03-14T05:23:52;5.40;;;1.30;;
4873;SDS011;2451;49.970;9.068;2023-03-14T05:26:17;3.03;;;1.02;;
4873;SDS011;2451;49.970;9.068;2023-03-14T05:28:43;3.67;;;1.20;;
4873;SDS011;2451;49.970;9.068;2023-03-14T05:31:09;3.22;;;1.23;;
4873;SDS011;2451;49.970;9.068;2023-03-14T05:33:34;3.42;;;1.20;;
4873;SDS011;2451;49.970;9.068;2023-03-14T05:36:00;4.38;;;1.20;;
4873;SDS011;2451;49.970;9.068;2023-03-14T05:38:25;3.45;;;1.20;;
4873;SDS011;2451;49.970;9.068;2023-03-14T05:40:51;4.95;;;1.15;;
4873;SDS011;2451;49.970;9.068;2023-03-14T05:43:16;4.03;;;1.73;;
4873;SDS011;2451;49.970;9.068;2023-03-14T05:45:42;2.33;;;1.17;;
4873;SDS011;2451;49.970;9.068;2023-03-14T05:48:08;4.53;;;1.20;;
4873;SDS011;2451;49.970;9.068;2023-03-14T05:50:34;7.03;;;1.40;;
4873;SDS011;2451;49.970;9.068;2023-03-14T05:52:59;3.72;;;1.30;;
4873;SDS011;2451;49.970;9.068;2023-03-14T05:55:25;4.72;;;1.10;;
4873;SDS011;2451;49.970;9.068;2023-03-14T05:57:50;4.25;;;1.30;;
4873;SDS011;2451;49.970;9.068;2023-03-14T06:00:17;3.95;;;1.10;;
4873;SDS011;2451;49.970;9.068;2023-03-14T06:02:43;3.78;;;1.02;;
4873;SDS011;2451;49.970;9.068;2023-03-14T06:05:08;4.68;;;1.33;;
4873;SDS011;2451;49.970;9.068;2023-03-14T06:07:34;4.03;;;1.20;;
4873;SDS011;2451;49.970;9.068;2023-03-14T06:09:59;5.30;;;0.95;;
4873;SDS011;2451;49.970;9.068;2023-03-14T06:12:25;3.85;;;1.20;;
4873;SDS011;2451;49.970;9.068;2023-03-14T06:14:50;2.90;;;1.05;;
4873;SDS011;2451;49.970;9.068;2023-03-14T06:17:16;6.07;;;1.25;;
4873;SDS011;2451;49.970;9.068;2023-03-14T06:19:41;4.70;;;1.30;;
4873;SDS011;2451;49.970;9.068;2023-03-14T06:22:07;4.00;;;1.08;;
4873;SDS011;2451;49.970;9.068;2023-03-14T06:24:32;4.10;;;1.20;;
4873;SDS011;2451;49.970;9.068;2023-03-14T06:26:58;4.38;;;1.38;;
4873;SDS011;2451;49.970;9.068;2023-03-14T06:29:24;5.28;;;1.23;;
4873;SDS011;2451;49.970;9.068;2023-03-14T06:31:49;3.70;;;1.10;;
4873;SDS011;2451;49.970;9.068;2023-03-14T06:34:15;3.58;;;1.10;;
4873;SDS011;2451;49.970;9.068;2023-03-14T06:36:40;1.88;;;0.93;;
4873;SDS011;2451;49.970;9.068;2023-03-14T06:39:06;3.35;;;0.90;;
4873;SDS011;2451;49.970;9.068;2023-03-14T06:41:31;2.05;;;0.90;;
4873;SDS011;2451;49.970;9.068;2023-03-14T06:43:57;3.67;;;0.98;;
4873;SDS011;2451;49.970;9.068;2023-03-14T06:46:23;2.58;;;0.95;;
4873;SDS011;2451;49.970;9.068;2023-03-14T06:48:48;2.53;;;1.00;;
4873;SDS011;2451;49.970;9.068;2023-03-14T06:51:14;6.10;;;1.42;;
4873;SDS011;2451;49.970;9.068;2023-03-14T06:53:39;3.55;;;1.10;;
4873;SDS011;2451;49.970;9.068;2023-03-14T06:56:05;3.20;;;1.27;;
4873;SDS011;2451;49.970;9.068;2023-03-14T06:58:31;3.13;;;1.08;;
4873;SDS011;2451;49.970;9.068;2023-03-14T07:00:57;2.33;;;0.95;;
4873;SDS011;2451;49.970;9.068;2023-03-14T07:03:23;1.70;;;1.10;;
4873;SDS011;2451;49.970;9.068;2023-03-14T07:05:49;4.40;;;1.00;;
4873;SDS011;2451;49.970;9.068;2023-03-14T07:08:15;3.45;;;1.15;;
4873;SDS011;2451;49.970;9.068;2023-03-14T07:10:41;3.13;;;1.30;;
4873;SDS011;2451;49.970;9.068;2023-03-14T07:13:06;3.08;;;0.90;;
4873;SDS011;2451;49.970;9.068;2023-03-14T07:15:32;1.98;;;1.00;;
4873;SDS011;2451;49.970;9.068;2023-03-14T07:17:57;3.05;;;1.00;;
4873;SDS011;2451;49.970;9.068;2023-03-14T07:20:23;4.03;;;1.20;;
4873;SDS011;2451;49.970;9.068;2023-03-14T07:22:49;3.78;;;1.30;;
4873;SDS011;2451;49.970;9.068;2023-03-14T07:25:15;3.20;;;1.13;;
4873;SDS011;2451;49.970;9.068;2023-03-14T07:27:45;3.10;;;0.98;;
4873;SDS011;2451;49.970;9.068;2023-03-14T07:30:12;1.45;;;0.90;;
4873;SDS011;2451;49.970;9.068;2023-03-14T07:32:38;5.47;;;1.40;;
4873;SDS011;2451;49.970;9.068;2023-03-14T07:35:04;5.22;;;1.20;;
4873;SDS011;2451;49.970;9.068;2023-03-14T07:37:30;2.25;;;1.10;;
4873;SDS011;2451;49.970;9.068;2023-03-14T07:39:55;2.60;;;1.20;;
4873;SDS011;2451;49.970;9.068;2023-03-14T07:42:21;3.60;;;1.30;;
4873;SDS011;2451;49.970;9.068;2023-03-14T07:44:46;3.75;;;1.50;;
4873;SDS011;2451;49.970;9.068;2023-03-14T07:47:12;3.22;;;1.23;;
4873;SDS011;2451;49.970;9.068;2023-03-14T07:49:37;2.60;;;1.10;;
4873;SDS011;2451;49.970;9.068;2023-03-14T07:52:03;3.42;;;1.38;;
4873;SDS011;2451;49.970;9.068;2023-03-14T07:54:28;2.20;;;1.00;;
4873;SDS011;2451;49.970;9.068;2023-03-14T07:56:54;3.08;;;1.27;;
4873;SDS011;2451;49.970;9.068;2023-03-14T07:59:19;3.15;;;1.05;;
4873;SDS011;2451;49.970;9.068;2023-03-14T08:01:45;3.58;;;1.30;;
4873;SDS011;2451;49.970;9.068;2023-03-14T08:04:11;4.20;;;1.15;;
4873;SDS011;2451;49.970;9.068;2023-03-14T08:06:36;5.75;;;1.45;;
4873;SDS011;2451;49.970;9.068;2023-03-14T08:09:03;3.67;;;1.10;;
4873;SDS011;2451;49.970;9.068;2023-03-14T08:11:29;3.03;;;1.02;;
4873;SDS011;2451;49.970;9.068;2023-03-14T08:13:54;4.65;;;1.30;;
4873;SDS011;2451;49.970;9.068;2023-03-14T08:16:20;3.47;;;1.10;;
4873;SDS011;2451;49.970;9.068;2023-03-14T08:18:46;3.78;;;1.35;;
4873;SDS011;2451;49.970;9.068;2023-03-14T08:21:12;4.85;;;1.17;;
4873;SDS011;2451;49.970;9.068;2023-03-14T08:23:38;2.72;;;1.05;;
4873;SDS011;2451;49.970;9.068;2023-03-14T08:26:03;2.88;;;0.90;;
4873;SDS011;2451;49.970;9.068;2023-03-14T08:28:29;2.33;;;0.90;;
4873;SDS011;2451;49.970;9.068;2023-03-14T08:30:57;3.75;;;1.10;;
4873;SDS011;2451;49.970;9.068;2023-03-14T08:33:23;4.15;;;0.98;;
4873;SDS011;2451;49.970;9.068;2023-03-14T08:35:51;1.40;;;0.77;;
4873;SDS011;2451;49.970;9.068;2023-03-14T08:38:17;4.38;;;1.20;;
4873;SDS011;2451;49.970;9.068;2023-03-14T08:40:43;2.42;;;0.80;;
4873;SDS011;2451;49.970;9.068;2023-03-14T08:43:08;3.10;;;1.02;;
4873;SDS011;2451;49.970;9.068;2023-03-14T08:45:34;3.28;;;0.93;;
4873;SDS011;2451;49.970;9.068;2023-03-14T08:47:59;4.30;;;0.90;;
4873;SDS011;2451;49.970;9.068;2023-03-14T08:50:25;2.75;;;0.90;;
4873;SDS011;2451;49.970;9.068;2023-03-14T08:52:50;1.75;;;0.70;;
4873;SDS011;2451;49.970;9.068;2023-03-14T08:55:16;2.80;;;1.00;;
4873;SDS011;2451;49.970;9.068;2023-03-14T08:57:41;2.22;;;1.00;;
4873;SDS011;2451;49.970;9.068;2023-03-14T09:00:07;5.28;;;1.10;;
4873;SDS011;2451;49.970;9.068;2023-03-14T09:02:39;3.42;;;0.95;;
4873;SDS011;2451;49.970;9.068;2023-03-14T09:05:05;1.92;;;0.90;;
4873;SDS011;2451;49.970;9.068;2023-03-14T09:07:31;2.60;;;0.95;;
4873;SDS011;2451;49.970;9.068;2023-03-14T09:09:56;2.58;;;0.80;;
4873;SDS011;2451;49.970;9.068;2023-03-14T09:12:22;1.05;;;0.70;;
4873;SDS011;2451;49.970;9.068;2023-03-14T09:14:47;3.65;;;1.27;;
4873;SDS011;2451;49.970;9.068;2023-03-14T09:17:13;4.15;;;0.90;;
4873;SDS011;2451;49.970;9.068;2023-03-14T09:19:38;3.92;;;1.20;;
4873;SDS011;2451;49.970;9.068;2023-03-14T09:22:04;2.42;;;1.20;;
4873;SDS011;2451;49.970;9.068;2023-03-14T09:24:30;5.25;;;1.35;;
4873;SDS011;2451;49.970;9.068;2023-03-14T09:26:55;3.55;;;0.85;;
4873;SDS011;2451;49.970;9.068;2023-03-14T09:29:22;2.85;;;1.00;;
4873;SDS011;2451;49.970;9.068;2023-03-14T09:31:47;3.80;;;1.17;;
4873;SDS011;2451;49.970;9.068;2023-03-14T09:34:13;0.95;;;0.80;;
4873;SDS011;2451;49.970;9.068;2023-03-14T09:36:38;2.25;;;0.90;;
4873;SDS011;2451;49.970;9.068;2023-03-14T09:39:04;2.47;;;0.90;;
4873;SDS011;2451;49.970;9.068;2023-03-14T09:41:33;1.98;;;0.82;;
4873;SDS011;2451;49.970;9.068;2023-03-14T09:44:03;3.00;;;0.95;;
4873;SDS011;2451;49.970;9.068;2023-03-14T09:46:34;3.70;;;1.00;;
4873;SDS011;2451;49.970;9.068;2023-03-14T09:49:02;2.28;;;1.10;;
4873;SDS011;2451;49.970;9.068;2023-03-14T09:51:37;2.05;;;0.80;;
4873;SDS011;2451;49.970;9.068;2023-03-14T09:54:03;1.55;;;0.90;;
4873;SDS011;2451;49.970;9.068;2023-03-14T09:56:31;2.00;;;1.17;;
4873;SDS011;2451;49.970;9.068;2023-03-14T09:58:59;2.28;;;0.85;;
4873;SDS011;2451;49.970;9.068;2023-03-14T10:01:28;3.33;;;1.15;;
4873;SDS011;2451;49.970;9.068;2023-03-14T10:03:56;3.47;;;0.88;;
4873;SDS011;2451;49.970;9.068;2023-03-14T10:06:26;3.30;;;1.00;;
4873;SDS011;2451;49.970;9.068;2023-03-14T10:08:53;2.42;;;0.80;;
4873;SDS011;2451;49.970;9.068;2023-03-14T10:11:20;2.10;;;0.68;;
4873;SDS011;2451;49.970;9.068;2023-03-14T10:13:50;3.40;;;1.00;;
4873;SDS011;2451;49.970;9.068;2023-03-14T10:16:29;1.60;;;0.70;;
4873;SDS011;2451;49.970;9.068;2023-03-14T10:19:01;2.38;;;0.88;;
4873;SDS011;2451;49.970;9.068;2023-03-14T10:21:35;0.95;;;0.65;;
4873;SDS011;2451;49.970;9.068;2023-03-14T10:24:10;1.08;;;0.70;;
4873;SDS011;2451;49.970;9.068;2023-03-14T10:27:08;0.77;;;0.65;;
4873;SDS011;2451;49.970;9.068;2023-03-14T10:29:53;1.60;;;0.80;;
4873;SDS011;2451;49.970;9.068;2023-03-14T10:32:21;0.75;;;0.57;;
4873;SDS011;2451;49.970;9.068;2023-03-14T10:38:01;1.42;;;0.73;;
4873;SDS011;2451;49.970;9.068;2023-03-14T10:40:30;3.45;;;0.90;;
4873;SDS011;2451;49.970;9.068;2023-03-14T10:45:27;3.08;;;0.90;;
4873;SDS011;2451;49.970;9.068;2023-03-14T10:47:57;2.63;;;1.23;;
4873;SDS011;2451;49.970;9.068;2023-03-14T10:50:31;1.80;;;1.17;;
4873;SDS011;2451;49.970;9.068;2023-03-14T10:52:57;2.10;;;1.20;;
4873;SDS011;2451;49.970;9.068;2023-03-14T10:55:28;2.72;;;2.00;;
4873;SDS011;2451;49.970;9.068;2023-03-14T10:58:03;3.97;;;2.50;;
4873;SDS011;2451;49.970;9.068;2023-03-14T11:00:29;2.38;;;1.25;;
4873;SDS011;2451;49.970;9.068;2023-03-14T11:03:10;2.42;;;1.70;;
4873;SDS011;2451;49.970;9.068;2023-03-14T11:05:46;4.47;;;1.40;;
4873;SDS011;2451;49.970;9.068;2023-03-14T11:10:56;2.65;;;1.25;;
4873;SDS011;2451;49.970;9.068;2023-03-14T11:13:43;2.38;;;1.20;;
4873;SDS011;2451;49.970;9.068;2023-03-14T11:25:26;1.40;;;1.20;;
4873;SDS011;2451;49.970;9.068;2023-03-14T11:28:08;2.65;;;1.20;;
4873;SDS011;2451;49.970;9.068;2023-03-14T11:31:00;2.03;;;1.40;;
4873;SDS011;2451;49.970;9.068;2023-03-14T11:33:32;2.67;;;1.50;;
4873;SDS011;2451;49.970;9.068;2023-03-14T11:36:03;4.25;;;1.77;;
4873;SDS011;2451;49.970;9.068;2023-03-14T11:38:51;4.03;;;1.70;;
4873;SDS011;2451;49.970;9.068;2023-03-14T11:41:18;2.88;;;1.60;;
4873;SDS011;2451;49.970;9.068;2023-03-14T11:43:54;2.53;;;1.42;;
4873;SDS011;2451;49.970;9.068;2023-03-14T11:46:28;1.88;;;1.40;;
4873;SDS011;2451;49.970;9.068;2023-03-14T11:51:56;1.70;;;1.35;;
4873;SDS011;2451;49.970;9.068;2023-03-14T11:56:58;2.63;;;1.02;;
4873;SDS011;2451;49.970;9.068;2023-03-14T12:00:03;1.35;;;1.20;;
4873;SDS011;2451;49.970;9.068;2023-03-14T12:02:41;1.55;;;0.80;;
4873;SDS011;2451;49.970;9.068;2023-03-14T12:11:10;0.80;;;0.80;;
4873;SDS011;2451;49.970;9.068;2023-03-14T12:13:40;1.13;;;0.82;;
4873;SDS011;2451;49.970;9.068;2023-03-14T12:16:23;1.48;;;1.13;;
4873;SDS011;2451;49.970;9.068;2023-03-14T12:18:50;0.95;;;0.95;;
4873;SDS011;2451;49.970;9.068;2023-03-14T12:21:17;1.05;;;0.90;;
4873;SDS011;2451;49.970;9.068;2023-03-14T12:23:53;1.00;;;1.00;;
4873;SDS011;2451;49.970;9.068;2023-03-14T12:26:23;1.30;;;1.00;;
4873;SDS011;2451;49.970;9.068;2023-03-14T12:28:51;1.02;;;0.80;;
4873;SDS011;2451;49.970;9.068;2023-03-14T12:31:38;1.75;;;1.00;;
4873;SDS011;2451;49.970;9.068;2023-03-14T12:41:48;1.90;;;1.45;;
4873;SDS011;2451;49.970;9.068;2023-03-14T12:46:58;0.85;;;0.70;;
4873;SDS011;2451;49.970;9.068;2023-03-14T12:52:00;1.20;;;0.60;;
4873;SDS011;2451;49.970;9.068;2023-03-14T13:00:37;2.60;;;0.90;;
4873;SDS011;2451;49.970;9.068;2023-03-14T13:05:56;3.25;;;1.30;;
4873;SDS011;2451;49.970;9.068;2023-03-14T13:08:34;2.58;;;1.42;;
4873;SDS011;2451;49.970;9.068;2023-03-14T13:11:08;1.20;;;0.90;;
4873;SDS011;2451;49.970;9.068;2023-03-14T13:13:41;1.20;;;1.00;;
4873;SDS011;2451;49.970;9.068;2023-03-14T13:16:12;1.55;;;0.80;;
4873;SDS011;2451;49.970;9.068;2023-03-14T13:18:43;0.90;;;0.90;;
4873;SDS011;2451;49.970;9.068;2023-03-14T13:23:38;3.70;;;1.20;;
4873;SDS011;2451;49.970;9.068;2023-03-14T13:26:06;2.03;;;1.10;;
4873;SDS011;2451;49.970;9.068;2023-03-14T13:28:37;0.98;;;0.77;;
4873;SDS011;2451;49.970;9.068;2023-03-14T13:31:03;1.92;;;0.80;;
4873;SDS011;2451;49.970;9.068;2023-03-14T13:33:31;1.73;;;0.70;;
4873;SDS011;2451;49.970;9.068;2023-03-14T13:35:58;0.60;;;0.60;;
4873;SDS011;2451;49.970;9.068;2023-03-14T13:38:30;0.60;;;0.60;;
4873;SDS011;2451;49.970;9.068;2023-03-14T13:40:58;1.73;;;0.80;;
4873;SDS011;2451;49.970;9.068;2023-03-14T13:43:41;1.75;;;1.10;;
4873;SDS011;2451;49.970;9.068;2023-03-14T13:48:42;1.88;;;0.60;;
4873;SDS011;2451;49.970;9.068;2023-03-14T13:51:13;0.57;;;0.52;;
4873;SDS011;2451;49.970;9.068;2023-03-14T13:53:42;1.90;;;0.70;;
4873;SDS011;2451;49.970;9.068;2023-03-14T13:56:14;0.70;;;0.70;;
4873;SDS011;2451;49.970;9.068;2023-03-14T13:58:40;0.65;;;0.45;;
4873;SDS011;2451;49.970;9.068;2023-03-14T14:01:10;0.45;;;0.45;;
4873;SDS011;2451;49.970;9.068;2023-03-14T14:03:43;1.00;;;0.90;;
4873;SDS011;2451;49.970;9.068;2023-03-14T14:16:45;0.60;;;0.60;;
4873;SDS011;2451;49.970;9.068;2023-03-14T14:19:12;0.57;;;0.50;;
4873;SDS011;2451;49.970;9.068;2023-03-14T14:21:40;0.40;;;0.40;;
4873;SDS011;2451;49.970;9.068;2023-03-14T14:24:07;1.13;;;0.43;;
4873;SDS011;2451;49.970;9.068;2023-03-14T14:26:39;2.22;;;0.90;;
4873;SDS011;2451;49.970;9.068;2023-03-14T14:29:06;1.95;;;0.68;;
4873;SDS011;2451;49.970;9.068;2023-03-14T14:31:44;0.65;;;0.60;;
4873;SDS011;2451;49.970;9.068;2023-03-14T14:34:17;0.93;;;0.60;;
4873;SDS011;2451;49.970;9.068;2023-03-14T14:36:44;0.82;;;0.70;;
4873;SDS011;2451;49.970;9.068;2023-03-14T14:39:21;1.15;;;0.80;;
4873;SDS011;2451;49.970;9.068;2023-03-14T14:41:50;0.98;;;0.70;;
4873;SDS011;2451;49.970;9.068;2023-03-14T14:44:18;1.10;;;0.65;;
4873;SDS011;2451;49.970;9.068;2023-03-14T14:46:53;0.60;;;0.60;;
4873;SDS011;2451;49.970;9.068;2023-03-14T14:49:20;0.70;;;0.70;;
4873;SDS011;2451;49.970;9.068;2023-03-14T14:51:49;2.05;;;0.90;;
4873;SDS011;2451;49.970;9.068;2023-03-14T14:54:17;1.02;;;1.00;;
4873;SDS011;2451;49.970;9.068;2023-03-14T14:56:48;0.82;;;0.80;;
4873;SDS011;2451;49.970;9.068;2023-03-14T14:59:20;0.70;;;0.65;;
4873;SDS011;2451;49.970;9.068;2023-03-14T15:01:47;0.88;;;0.70;;
4873;SDS011;2451;49.970;9.068;2023-03-14T15:04:13;1.15;;;0.70;;
4873;SDS011;2451;49.970;9.068;2023-03-14T15:06:40;2.22;;;0.68;;
4873;SDS011;2451;49.970;9.068;2023-03-14T15:09:09;0.63;;;0.63;;
4873;SDS011;2451;49.970;9.068;2023-03-14T15:11:35;1.42;;;0.73;;
4873;SDS011;2451;49.970;9.068;2023-03-14T15:14:01;2.47;;;1.25;;
4873;SDS011;2451;49.970;9.068;2023-03-14T15:16:28;1.27;;;1.17;;
4873;SDS011;2451;49.970;9.068;2023-03-14T15:18:56;1.75;;;1.10;;
4873;SDS011;2451;49.970;9.068;2023-03-14T15:21:23;1.73;;;1.23;;
4873;SDS011;2451;49.970;9.068;2023-03-14T15:23:50;1.20;;;0.77;;
4873;SDS011;2451;49.970;9.068;2023-03-14T15:26:17;1.70;;;1.42;;
4873;SDS011;2451;49.970;9.068;2023-03-14T15:28:45;4.30;;;2.10;;
4873;SDS011;2451;49.970;9.068;2023-03-14T15:31:12;6.07;;;2.75;;
4873;SDS011;2451;49.970;9.068;2023-03-14T15:33:39;5.30;;;2.33;;
4873;SDS011;2451;49.970;9.068;2023-03-14T15:36:06;4.90;;;2.25;;
4873;SDS011;2451;49.970;9.068;2023-03-14T15:38:41;4.88;;;2.15;;
4873;SDS011;2451;49.970;9.068;2023-03-14T15:41:07;6.43;;;2.60;;
4873;SDS011;2451;49.970;9.068;2023-03-14T15:43:34;1.17;;;1.08;;
4873;SDS011;2451;49.970;9.068;2023-03-14T15:46:00;5.05;;;1.80;;
4873;SDS011;2451;49.970;9.068;2023-03-14T15:48:25;1.85;;;1.05;;
4873;SDS011;2451;49.970;9.068;2023-03-14T15:50:51;1.15;;;1.00;;
4873;SDS011;2451;49.970;9.068;2023-03-14T15:53:16;2.75;;;1.30;;
4873;SDS011;2451;49.970;9.068;2023-03-14T15:55:42;2.53;;;1.67;;
4873;SDS011;2451;49.970;9.068;2023-03-14T15:58:15;2.35;;;1.42;;
4873;SDS011;2451;49.970;9.068;2023-03-14T16:00:42;3.22;;;1.88;;
4873;SDS011;2451;49.970;9.068;2023-03-14T16:03:07;3.58;;;2.00;;
4873;SDS011;2451;49.970;9.068;2023-03-14T16:05:33;4.30;;;2.25;;
4873;SDS011;2451;49.970;9.068;2023-03-14T16:07:58;1.48;;;1.13;;
4873;SDS011;2451;49.970;9.068;2023-03-14T16:10:26;1.63;;;1.20;;
4873;SDS011;2451;49.970;9.068;2023-03-14T16:12:51;3.42;;;1.27;;
4873;SDS011;2451;49.970;9.068;2023-03-14T16:15:17;2.28;;;1.60;;
4873;SDS011;2451;49.970;9.068;2023-03-14T16:17:43;1.77;;;1.48;;
4873;SDS011;2451;49.970;9.068;2023-03-14T16:20:08;2.38;;;1.50;;
4873;SDS011;2451;49.970;9.068;2023-03-14T16:22:35;1.40;;;1.30;;
4873;SDS011;2451;49.970;9.068;2023-03-14T16:25:02;4.95;;;1.35;;
4873;SDS011;2451;49.970;9.068;2023-03-14T16:27:29;1.45;;;1.20;;
4873;SDS011;2451;49.970;9.068;2023-03-14T16:29:55;2.45;;;1.33;;
4873;SDS011;2451;49.970;9.068;2023-03-14T16:32:22;6.55;;;3.08;;
4873;SDS011;2451;49.970;9.068;2023-03-14T16:34:48;5.63;;;2.95;;
4873;SDS011;2451;49.970;9.068;2023-03-14T16:37:13;6.50;;;3.03;;